createdAt,value
2023-06-25T00:00:45.542Z,20.10
2023-06-25T00:03:13.220Z,20.04
2023-06-25T00:09:26.878Z,20.14
2023-06-25T00:11:53.354Z,20.05
2023-06-25T00:14:19.763Z,19.98
2023-06-25T00:16:46.285Z,19.94
2023-06-25T00:19:12.701Z,19.91
2023-06-25T00:21:39.848Z,19.79
2023-06-25T00:24:06.689Z,19.78
2023-06-25T00:26:33.102Z,19.73
2023-06-25T00:28:59.604Z,19.67
2023-06-25T00:31:25.945Z,19.63
2023-06-25T00:33:52.313Z,19.54
2023-06-25T00:36:18.841Z,19.50
2023-06-25T00:38:45.432Z,19.48
2023-06-25T00:41:13.130Z,19.42
2023-06-25T00:43:42.984Z,19.40
2023-06-25T00:46:13.965Z,19.34
2023-06-25T00:48:46.599Z,19.32
2023-06-25T00:51:17.748Z,19.28
2023-06-25T00:53:44.417Z,19.32
2023-06-25T00:56:12.659Z,19.34
2023-06-25T00:58:40.319Z,19.44
2023-06-25T01:01:19.566Z,19.49
2023-06-25T01:03:56.149Z,19.48
2023-06-25T01:06:30.590Z,19.40
2023-06-25T01:09:00.471Z,19.32
2023-06-25T01:11:30.103Z,19.30
2023-06-25T01:13:56.698Z,19.21
2023-06-25T01:16:23.652Z,19.17
2023-06-25T01:19:03.259Z,19.15
2023-06-25T01:21:32.313Z,19.23
2023-06-25T01:23:59.123Z,19.26
2023-06-25T01:26:25.680Z,19.26
2023-06-25T01:28:56.918Z,19.22
2023-06-25T01:31:25.780Z,19.18
2023-06-25T01:33:52.562Z,19.15
2023-06-25T01:36:19.193Z,19.11
2023-06-25T01:38:45.646Z,19.10
2023-06-25T01:41:12.095Z,19.04
2023-06-25T01:43:38.443Z,19.10
2023-06-25T01:46:04.866Z,19.16
2023-06-25T01:48:31.788Z,19.14
2023-06-25T01:50:58.758Z,19.16
2023-06-25T01:53:25.247Z,19.14
2023-06-25T01:55:53.369Z,19.13
2023-06-25T01:58:19.771Z,19.12
2023-06-25T02:00:46.169Z,19.10
2023-06-25T02:03:12.725Z,19.12
2023-06-25T02:05:39.340Z,19.12
2023-06-25T02:08:06.034Z,19.03
2023-06-25T02:10:33.737Z,19.05
2023-06-25T02:13:00.133Z,18.86
2023-06-25T02:15:26.723Z,18.93
2023-06-25T02:17:53.184Z,18.90
2023-06-25T02:20:20.331Z,18.86
2023-06-25T02:22:49.059Z,18.81
2023-06-25T02:25:15.502Z,18.75
2023-06-25T02:27:41.905Z,18.81
2023-06-25T02:30:10.034Z,18.83
2023-06-25T02:32:36.577Z,18.73
2023-06-25T02:35:03.427Z,18.66
2023-06-25T02:37:29.793Z,18.65
2023-06-25T02:39:56.192Z,18.67
2023-06-25T02:42:22.785Z,18.47
2023-06-25T02:44:49.246Z,18.36
2023-06-25T02:47:15.658Z,18.30
2023-06-25T02:49:42.103Z,18.29
2023-06-25T02:52:08.785Z,18.35
2023-06-25T02:54:35.131Z,18.36
2023-06-25T02:57:01.513Z,18.31
2023-06-25T02:59:27.851Z,18.29
2023-06-25T03:01:54.262Z,18.29
2023-06-25T03:04:20.641Z,18.24
2023-06-25T03:06:47.097Z,18.23
2023-06-25T03:09:13.465Z,18.21
2023-06-25T03:11:39.877Z,18.13
2023-06-25T03:14:06.345Z,18.21
2023-06-25T03:16:33.322Z,18.19
2023-06-25T03:19:01.364Z,18.20
2023-06-25T03:21:27.816Z,18.22
2023-06-25T03:23:54.209Z,18.16
2023-06-25T03:26:20.605Z,18.14
2023-06-25T03:28:47.016Z,18.11
2023-06-25T03:31:13.447Z,18.12
2023-06-25T03:33:39.947Z,18.13
2023-06-25T03:36:06.560Z,18.07
2023-06-25T03:38:32.970Z,18.16
2023-06-25T03:40:59.608Z,18.11
2023-06-25T03:43:26.006Z,18.09
2023-06-25T03:45:52.422Z,18.03
2023-06-25T03:48:18.952Z,18.02
2023-06-25T03:50:45.530Z,18.06
2023-06-25T03:53:12.199Z,18.12
2023-06-25T03:55:38.739Z,18.12
2023-06-25T03:58:05.251Z,18.13
2023-06-25T04:00:32.300Z,18.08
2023-06-25T04:02:58.748Z,18.01
2023-06-25T04:05:25.276Z,17.94
2023-06-25T04:07:51.637Z,17.86
2023-06-25T04:10:18.152Z,17.83
2023-06-25T04:12:44.491Z,17.77
2023-06-25T04:15:11.084Z,17.84
2023-06-25T04:17:38.023Z,17.83
2023-06-25T04:20:04.972Z,17.87
2023-06-25T04:22:31.312Z,17.95
2023-06-25T04:24:57.665Z,17.97
2023-06-25T04:27:24.082Z,18.01
2023-06-25T04:29:50.490Z,18.06
2023-06-25T04:32:17.631Z,18.09
2023-06-25T04:34:44.134Z,18.08
2023-06-25T04:37:10.467Z,18.18
2023-06-25T04:39:36.921Z,18.21
2023-06-25T04:42:03.438Z,18.27
2023-06-25T04:44:29.995Z,18.33
2023-06-25T04:46:56.400Z,18.37
2023-06-25T04:49:23.129Z,18.42
2023-06-25T04:51:49.658Z,18.40
2023-06-25T04:54:16.269Z,18.45
2023-06-25T04:56:42.758Z,18.47
2023-06-25T04:59:09.163Z,18.56
2023-06-25T05:01:35.727Z,18.63
2023-06-25T05:04:02.179Z,18.71
2023-06-25T05:06:29.124Z,18.74
2023-06-25T05:08:56.817Z,18.91
2023-06-25T05:11:23.180Z,19.00
2023-06-25T05:13:49.585Z,19.06
2023-06-25T05:16:16.017Z,19.18
2023-06-25T05:18:42.990Z,19.30
2023-06-25T05:21:09.426Z,19.40
2023-06-25T05:23:56.829Z,19.56
2023-06-25T05:26:23.173Z,19.67
2023-06-25T05:28:49.564Z,19.80
2023-06-25T05:31:16.007Z,19.93
2023-06-25T05:33:42.381Z,20.07
2023-06-25T05:36:08.712Z,20.22
2023-06-25T05:38:35.261Z,20.34
2023-06-25T05:41:01.679Z,20.43
2023-06-25T05:43:28.057Z,20.59
2023-06-25T05:45:54.539Z,20.72
2023-06-25T05:48:20.954Z,20.85
2023-06-25T05:50:47.384Z,20.96
2023-06-25T05:53:13.953Z,21.05
2023-06-25T05:55:40.475Z,21.09
2023-06-25T05:58:07.046Z,21.28
2023-06-25T06:00:33.406Z,21.36
2023-06-25T06:02:59.855Z,21.45
2023-06-25T06:05:26.273Z,21.58
2023-06-25T06:07:52.714Z,21.79
2023-06-25T06:10:19.156Z,21.84
2023-06-25T06:12:45.660Z,21.83
2023-06-25T06:15:12.109Z,21.85
2023-06-25T06:20:05.633Z,22.36
2023-06-25T06:22:32.057Z,22.40
2023-06-25T06:24:58.559Z,22.47
2023-06-25T06:27:24.949Z,22.54
2023-06-25T06:29:51.340Z,22.53
2023-06-25T06:32:17.706Z,22.61
2023-06-25T06:34:44.072Z,22.70
2023-06-25T06:37:10.473Z,22.76
2023-06-25T06:39:36.882Z,22.88
2023-06-25T06:42:03.471Z,23.08
2023-06-25T06:44:29.932Z,23.38
2023-06-25T06:46:56.449Z,23.52
2023-06-25T06:49:22.936Z,23.62
2023-06-25T06:51:49.359Z,23.73
2023-06-25T06:54:15.783Z,23.81
2023-06-25T06:56:42.379Z,23.89
2023-06-25T06:59:08.824Z,23.84
2023-06-25T07:01:35.531Z,24.04
2023-06-25T07:06:52.793Z,24.19
2023-06-25T07:09:25.223Z,24.34
2023-06-25T07:11:52.081Z,24.46
2023-06-25T07:14:18.494Z,24.57
2023-06-25T07:16:45.470Z,24.83
2023-06-25T07:19:11.850Z,24.86
2023-06-25T07:21:38.754Z,24.99
2023-06-25T07:24:05.927Z,25.08
2023-06-25T07:26:32.432Z,25.22
2023-06-25T07:28:58.814Z,25.33
2023-06-25T07:31:25.276Z,25.40
2023-06-25T07:33:51.819Z,25.49
2023-06-25T07:36:18.219Z,25.55
2023-06-25T07:38:44.630Z,25.68
2023-06-25T07:41:11.085Z,25.85
2023-06-25T07:43:37.496Z,26.04
2023-06-25T07:46:04.042Z,26.01
2023-06-25T07:48:30.449Z,26.14
2023-06-25T07:50:57.113Z,26.38
2023-06-25T07:53:23.722Z,26.52
2023-06-25T07:56:01.976Z,26.46
2023-06-25T07:58:29.569Z,26.67
2023-06-25T08:00:55.971Z,26.85
2023-06-25T08:03:25.334Z,26.67
2023-06-25T08:05:52.181Z,26.30
2023-06-25T08:08:18.580Z,26.73
2023-06-25T08:10:45.008Z,27.35
2023-06-25T08:13:11.516Z,27.40
2023-06-25T08:15:38.160Z,27.80
2023-06-25T08:18:04.733Z,27.63
2023-06-25T08:20:31.723Z,27.96
2023-06-25T08:22:58.169Z,27.86
2023-06-25T08:25:26.170Z,27.98
2023-06-25T08:27:52.680Z,28.23
2023-06-25T08:30:19.344Z,28.35
2023-06-25T08:32:45.714Z,28.44
2023-06-25T08:35:12.158Z,28.54
2023-06-25T08:37:38.561Z,28.43
2023-06-25T08:40:05.658Z,28.47
2023-06-25T08:42:32.782Z,28.61
2023-06-25T08:44:59.285Z,28.48
2023-06-25T08:47:37.719Z,28.89
2023-06-25T08:50:04.832Z,29.06
2023-06-25T08:52:31.924Z,29.39
2023-06-25T08:54:58.505Z,29.23
2023-06-25T08:57:24.982Z,29.16
2023-06-25T08:59:51.364Z,29.27
2023-06-25T09:02:17.833Z,29.41
2023-06-25T09:04:44.385Z,29.66
2023-06-25T09:07:17.907Z,29.26
2023-06-25T09:09:44.429Z,29.69
2023-06-25T09:12:11.477Z,29.64
2023-06-25T09:14:37.889Z,29.53
2023-06-25T09:17:06.097Z,29.59
2023-06-25T09:19:32.469Z,29.75
2023-06-25T09:21:59.926Z,30.31
2023-06-25T09:24:27.287Z,30.20
2023-06-25T09:26:54.829Z,30.32
2023-06-25T09:29:22.646Z,30.32
2023-06-25T09:31:49.922Z,30.67
2023-06-25T09:34:18.127Z,30.43
2023-06-25T09:36:45.923Z,30.27
2023-06-25T09:39:13.427Z,30.76
2023-06-25T09:41:44.370Z,30.81
2023-06-25T09:44:11.807Z,30.88
2023-06-25T09:46:40.451Z,31.25
2023-06-25T09:49:08.596Z,30.98
2023-06-25T09:51:41.545Z,31.08
2023-06-25T09:54:09.793Z,30.83
2023-06-25T09:56:39.367Z,31.41
2023-06-25T09:59:06.014Z,31.40
2023-06-25T10:01:32.858Z,31.49
2023-06-25T10:03:59.560Z,31.10
2023-06-25T10:06:26.113Z,31.40
2023-06-25T10:08:52.616Z,31.49
2023-06-25T10:11:19.098Z,31.36
2023-06-25T10:13:45.558Z,31.80
2023-06-25T10:16:26.487Z,31.99
2023-06-25T10:19:00.894Z,31.63
2023-06-25T10:21:27.335Z,31.26
2023-06-25T10:23:58.300Z,31.76
2023-06-25T10:26:34.106Z,31.89
2023-06-25T10:29:02.359Z,31.54
2023-06-25T10:31:38.251Z,31.67
2023-06-25T10:34:08.752Z,31.55
2023-06-25T10:36:35.216Z,31.58
2023-06-25T10:39:01.837Z,31.61
2023-06-25T10:41:32.786Z,32.15
2023-06-25T10:43:59.535Z,31.93
2023-06-25T10:46:35.449Z,31.96
2023-06-25T10:49:03.073Z,32.11
2023-06-25T10:51:30.153Z,32.10
2023-06-25T10:53:57.365Z,32.08
2023-06-25T10:56:24.103Z,31.92
2023-06-25T10:58:59.659Z,32.02
2023-06-25T11:01:33.927Z,32.64
2023-06-25T11:04:00.387Z,32.65
2023-06-25T11:06:26.924Z,32.52
2023-06-25T11:08:55.089Z,32.38
2023-06-25T11:11:23.595Z,32.80
2023-06-25T11:13:50.135Z,32.68
2023-06-25T11:16:16.563Z,32.18
2023-06-25T11:18:44.342Z,32.23
2023-06-25T11:21:10.859Z,32.88
2023-06-25T11:23:37.339Z,31.95
2023-06-25T11:26:04.299Z,32.39
2023-06-25T11:28:30.989Z,32.45
2023-06-25T11:30:59.602Z,32.82
2023-06-25T11:33:26.171Z,32.69
2023-06-25T11:35:52.764Z,32.43
2023-06-25T11:38:29.366Z,32.72
2023-06-25T11:40:59.374Z,32.92
2023-06-25T11:43:26.961Z,32.67
2023-06-25T11:45:53.964Z,33.09
2023-06-25T11:48:21.461Z,32.77
2023-06-25T11:50:50.978Z,32.71
2023-06-25T11:53:17.318Z,33.19
2023-06-25T11:55:43.826Z,32.86
2023-06-25T11:58:11.344Z,32.79
2023-06-25T12:00:40.217Z,32.72
2023-06-25T12:03:08.349Z,32.83
2023-06-25T12:05:34.879Z,32.85
2023-06-25T12:08:01.378Z,33.32
2023-06-25T12:10:27.944Z,33.37
2023-06-25T12:12:55.882Z,33.65
2023-06-25T12:15:22.707Z,33.60
2023-06-25T12:17:49.111Z,33.37
2023-06-25T12:20:15.603Z,33.15
2023-06-25T12:22:42.115Z,33.33
2023-06-25T12:25:08.673Z,33.79
2023-06-25T12:27:36.858Z,33.75
2023-06-25T12:30:03.820Z,33.50
2023-06-25T12:32:30.293Z,33.47
2023-06-25T12:34:56.678Z,33.47
2023-06-25T12:37:23.186Z,33.34
2023-06-25T12:39:49.603Z,33.56
2023-06-25T12:42:16.014Z,33.75
2023-06-25T12:44:42.410Z,33.50
2023-06-25T12:47:08.779Z,33.65
2023-06-25T12:49:35.166Z,33.69
2023-06-25T12:52:02.329Z,33.65
2023-06-25T12:54:28.743Z,33.37
2023-06-25T12:56:55.132Z,33.63
2023-06-25T12:59:21.596Z,33.93
2023-06-25T13:01:48.083Z,34.27
2023-06-25T13:04:14.581Z,34.14
2023-06-25T13:06:41.428Z,34.39
2023-06-25T13:09:07.857Z,34.59
2023-06-25T13:11:35.492Z,33.83
2023-06-25T13:14:01.985Z,33.84
2023-06-25T13:16:28.843Z,34.09
2023-06-25T13:18:55.262Z,33.99
2023-06-25T13:21:22.129Z,33.98
2023-06-25T13:23:48.499Z,34.15
2023-06-25T13:26:14.926Z,34.56
2023-06-25T13:28:41.333Z,34.11
2023-06-25T13:31:07.825Z,34.36
2023-06-25T13:33:34.208Z,34.75
2023-06-25T13:36:00.654Z,34.53
2023-06-25T13:38:27.072Z,34.25
2023-06-25T13:40:53.476Z,34.04
2023-06-25T13:43:19.905Z,33.85
2023-06-25T13:45:46.343Z,33.81
2023-06-25T13:48:12.829Z,34.06
2023-06-25T13:50:39.273Z,33.92
2023-06-25T13:53:05.688Z,33.84
2023-06-25T13:55:32.205Z,34.44
2023-06-25T13:57:59.124Z,34.22
2023-06-25T14:00:25.608Z,34.26
2023-06-25T14:03:06.782Z,34.50
2023-06-25T14:05:38.287Z,34.49
2023-06-25T14:08:07.192Z,34.85
2023-06-25T14:10:34.072Z,34.27
2023-06-25T14:13:02.273Z,34.49
2023-06-25T14:15:29.379Z,34.94
2023-06-25T14:17:56.442Z,34.83
2023-06-25T14:20:22.909Z,34.73
2023-06-25T14:22:49.292Z,34.80
2023-06-25T14:25:15.731Z,35.00
2023-06-25T14:27:42.208Z,35.08
2023-06-25T14:30:09.315Z,35.09
2023-06-25T14:32:35.796Z,35.03
2023-06-25T14:35:02.142Z,34.76
2023-06-25T14:37:28.538Z,34.76
2023-06-25T14:39:57.940Z,34.56
2023-06-25T14:42:24.292Z,34.78
2023-06-25T14:44:50.889Z,34.25
2023-06-25T14:47:17.366Z,33.99
2023-06-25T14:49:43.838Z,34.18
2023-06-25T14:52:10.243Z,34.40
2023-06-25T14:54:36.667Z,34.25
2023-06-25T14:57:03.241Z,34.61
2023-06-25T14:59:29.604Z,34.52
2023-06-25T15:01:55.988Z,34.49
2023-06-25T15:04:24.003Z,34.93
2023-06-25T15:06:50.803Z,34.49
2023-06-25T15:09:17.396Z,34.99
2023-06-25T15:11:44.342Z,34.42
2023-06-25T15:14:10.707Z,34.47
2023-06-25T15:16:37.081Z,34.66
2023-06-25T15:19:03.633Z,34.57
2023-06-25T15:21:31.475Z,34.69
2023-06-25T15:23:57.826Z,34.85
2023-06-25T15:26:24.181Z,34.66
2023-06-25T15:28:50.610Z,34.93
2023-06-25T15:31:17.161Z,34.69
2023-06-25T15:33:43.717Z,34.46
2023-06-25T15:36:10.090Z,34.54
2023-06-25T15:38:36.459Z,34.73
2023-06-25T15:41:02.848Z,34.53
2023-06-25T15:43:29.729Z,34.43
2023-06-25T15:45:56.283Z,34.16
2023-06-25T15:48:22.954Z,34.24
2023-06-25T15:50:49.344Z,34.27
2023-06-25T15:53:18.680Z,33.81
2023-06-25T15:55:45.059Z,34.04
2023-06-25T15:58:12.326Z,33.66
2023-06-25T16:00:39.226Z,34.06
2023-06-25T16:03:07.594Z,34.12
2023-06-25T16:05:34.375Z,33.83
2023-06-25T16:08:01.077Z,34.00
2023-06-25T16:10:29.215Z,34.20
2023-06-25T16:12:56.230Z,34.32
2023-06-25T16:15:22.699Z,34.21
2023-06-25T16:17:49.211Z,34.10
2023-06-25T16:20:15.625Z,34.09
2023-06-25T16:22:42.006Z,33.93
2023-06-25T16:25:09.174Z,34.04
2023-06-25T16:27:35.581Z,33.97
2023-06-25T16:30:05.222Z,33.76
2023-06-25T16:32:33.116Z,33.81
2023-06-25T16:34:59.649Z,33.62
2023-06-25T16:37:26.273Z,33.49
2023-06-25T16:39:52.659Z,33.30
2023-06-25T16:42:19.186Z,33.26
2023-06-25T16:44:47.424Z,32.88
2023-06-25T16:47:13.826Z,33.28
2023-06-25T16:49:43.604Z,33.45
2023-06-25T16:52:10.057Z,33.19
2023-06-25T16:54:36.680Z,33.24
2023-06-25T16:57:03.323Z,32.94
2023-06-25T16:59:29.912Z,32.96
2023-06-25T17:02:00.719Z,33.07
2023-06-25T17:04:27.122Z,33.10
2023-06-25T17:06:53.564Z,32.98
2023-06-25T17:09:20.006Z,32.79
2023-06-25T17:11:46.398Z,32.56
2023-06-25T17:14:12.727Z,32.52
2023-06-25T17:16:39.161Z,32.55
2023-06-25T17:19:05.577Z,32.71
2023-06-25T17:21:31.962Z,32.73
2023-06-25T17:23:58.356Z,32.66
2023-06-25T17:26:24.989Z,32.27
2023-06-25T17:28:51.344Z,32.43
2023-06-25T17:31:17.883Z,32.55
2023-06-25T17:33:44.271Z,32.57
2023-06-25T17:36:10.717Z,32.56
2023-06-25T17:38:37.070Z,32.59
2023-06-25T17:41:03.505Z,32.52
2023-06-25T17:43:30.368Z,32.26
2023-06-25T17:45:57.049Z,32.12
2023-06-25T17:48:23.574Z,32.05
2023-06-25T17:50:52.649Z,32.13
2023-06-25T17:53:20.313Z,32.29
2023-06-25T17:55:46.842Z,31.98
2023-06-25T17:58:13.255Z,31.85
2023-06-25T18:00:39.638Z,31.98
2023-06-25T18:03:06.289Z,32.05
2023-06-25T18:05:32.788Z,31.89
2023-06-25T18:07:59.239Z,31.86
2023-06-25T18:10:25.622Z,31.82
2023-06-25T18:12:52.108Z,31.61
2023-06-25T18:15:19.374Z,31.62
2023-06-25T18:17:46.694Z,31.48
2023-06-25T18:20:13.518Z,31.56
2023-06-25T18:22:40.271Z,31.54
2023-06-25T18:25:07.175Z,31.48
2023-06-25T18:27:33.550Z,31.42
2023-06-25T18:30:00.052Z,31.44
2023-06-25T18:32:26.703Z,31.33
2023-06-25T18:34:53.134Z,31.23
2023-06-25T18:37:19.577Z,31.22
2023-06-25T18:39:46.005Z,31.13
2023-06-25T18:42:12.494Z,31.05
2023-06-25T18:44:38.878Z,31.03
2023-06-25T18:47:06.354Z,30.91
2023-06-25T18:49:33.058Z,30.85
2023-06-25T18:51:59.508Z,30.80
2023-06-25T18:54:25.889Z,30.75
2023-06-25T18:56:52.398Z,30.53
2023-06-25T18:59:18.739Z,30.48
2023-06-25T19:01:45.133Z,30.36
2023-06-25T19:04:13.832Z,30.10
2023-06-25T19:06:41.061Z,30.10
2023-06-25T19:09:09.379Z,29.78
2023-06-25T19:11:35.787Z,29.78
2023-06-25T19:14:03.285Z,29.58
2023-06-25T19:16:29.713Z,29.46
2023-06-25T19:18:56.114Z,29.30
2023-06-25T19:21:22.538Z,29.22
2023-06-25T19:23:50.028Z,29.19
2023-06-25T19:26:16.468Z,29.01
2023-06-25T19:28:42.902Z,28.87
2023-06-25T19:31:09.368Z,28.83
2023-06-25T19:33:35.830Z,28.79
2023-06-25T19:36:02.227Z,28.62
2023-06-25T19:38:30.830Z,28.61
2023-06-25T19:40:57.254Z,28.52
2023-06-25T19:43:23.636Z,28.38
2023-06-25T19:45:50.585Z,28.24
2023-06-25T19:48:17.566Z,28.19
2023-06-25T19:50:44.171Z,28.05
2023-06-25T19:53:10.538Z,27.93
2023-06-25T19:55:36.951Z,27.86
2023-06-25T19:58:03.315Z,27.75
2023-06-25T20:00:29.867Z,27.60
2023-06-25T20:02:56.429Z,27.57
2023-06-25T20:05:22.981Z,27.46
2023-06-25T20:07:50.001Z,27.37
2023-06-25T20:10:19.411Z,27.35
2023-06-25T20:12:48.089Z,27.29
2023-06-25T20:15:16.916Z,27.11
2023-06-25T20:17:43.346Z,26.93
2023-06-25T20:20:10.289Z,26.79
2023-06-25T20:22:36.722Z,26.74
2023-06-25T20:25:03.535Z,26.69
2023-06-25T20:27:29.880Z,26.62
2023-06-25T20:29:57.488Z,26.59
2023-06-25T20:32:25.474Z,26.48
2023-06-25T20:34:51.975Z,26.39
2023-06-25T20:37:18.330Z,26.35
2023-06-25T20:39:44.721Z,26.24
2023-06-25T20:42:11.055Z,26.15
2023-06-25T20:44:37.841Z,26.14
2023-06-25T20:47:04.499Z,26.13
2023-06-25T20:49:31.002Z,26.01
2023-06-25T20:51:58.239Z,25.95
2023-06-25T20:54:25.477Z,25.86
2023-06-25T20:56:51.826Z,25.80
2023-06-25T20:59:18.278Z,25.80
2023-06-25T21:01:44.733Z,25.65
2023-06-25T21:04:11.229Z,25.60
2023-06-25T21:06:37.719Z,25.42
2023-06-25T21:09:05.006Z,25.40
2023-06-25T21:11:34.254Z,25.26
2023-06-25T21:14:00.616Z,25.12
2023-06-25T21:16:26.991Z,25.14
2023-06-25T21:18:53.424Z,25.11
2023-06-25T21:21:19.935Z,25.02
2023-06-25T21:23:46.277Z,24.97
2023-06-25T21:26:12.647Z,24.87
2023-06-25T21:28:39.001Z,24.83
2023-06-25T21:31:05.384Z,24.77
2023-06-25T21:33:31.821Z,24.69
2023-06-25T21:35:59.495Z,24.64
2023-06-25T21:38:26.095Z,24.57
2023-06-25T21:40:52.469Z,24.44
2023-06-25T21:43:18.846Z,24.35
2023-06-25T21:45:45.699Z,24.32
2023-06-25T21:48:12.179Z,24.23
2023-06-25T21:50:38.780Z,24.14
2023-06-25T21:53:06.540Z,24.05
2023-06-25T21:55:32.857Z,24.00
2023-06-25T21:57:59.238Z,23.95
2023-06-25T22:00:26.264Z,23.86
2023-06-25T22:02:52.797Z,23.80
2023-06-25T22:05:19.197Z,23.73
2023-06-25T22:07:45.710Z,23.69
2023-06-25T22:10:12.187Z,23.64
2023-06-25T22:12:40.260Z,23.56
2023-06-25T22:15:07.191Z,23.48
2023-06-25T22:17:33.567Z,23.34
2023-06-25T22:19:59.997Z,23.19
2023-06-25T22:22:26.384Z,23.00
2023-06-25T22:24:52.889Z,22.85
2023-06-25T22:27:19.322Z,22.81
2023-06-25T22:29:47.586Z,22.77
2023-06-25T22:32:15.353Z,22.61
2023-06-25T22:34:42.020Z,22.54
2023-06-25T22:37:08.535Z,22.50
2023-06-25T22:39:34.926Z,22.42
2023-06-25T22:42:01.284Z,22.37
2023-06-25T22:44:27.677Z,22.35
2023-06-25T22:46:54.105Z,22.34
2023-06-25T22:49:20.500Z,22.34
2023-06-25T22:51:49.483Z,22.32
2023-06-25T22:54:16.520Z,22.30
2023-06-25T22:56:43.036Z,22.15
2023-06-25T22:59:09.450Z,22.13
2023-06-25T23:01:35.891Z,22.06
2023-06-25T23:04:02.562Z,22.08
2023-06-25T23:06:29.325Z,22.05
2023-06-25T23:08:55.732Z,22.05
2023-06-25T23:11:22.113Z,21.95
2023-06-25T23:13:49.476Z,21.92
2023-06-25T23:16:20.281Z,21.86
2023-06-25T23:18:48.814Z,21.82
2023-06-25T23:21:15.308Z,21.77
2023-06-25T23:23:41.793Z,21.75
2023-06-25T23:26:09.178Z,21.64
2023-06-25T23:28:36.132Z,21.58
2023-06-25T23:31:04.496Z,21.52
2023-06-25T23:33:33.547Z,21.44
2023-06-25T23:36:00.733Z,21.38
2023-06-25T23:38:27.262Z,21.32
2023-06-25T23:40:53.608Z,21.29
2023-06-25T23:43:20.098Z,21.22
2023-06-25T23:45:46.642Z,21.21
2023-06-25T23:48:13.074Z,21.17
2023-06-25T23:50:39.689Z,21.12
2023-06-25T23:53:06.331Z,21.12
2023-06-25T23:55:32.817Z,20.95
2023-06-25T23:57:59.220Z,20.91
